Strona główna
METAR-TAF:

METAR-TAF

Lotnisko :

Roi Et, Tajlandia

Szerokość geograficzna: 16-07-00N, Długość geograficzna: 103-46-26E, wysokość: 138 m

Aktualna obserwacja pogody

Raport powstał 23 minut temu, godzina 22:00 UTC
Wiatr 3 kt od północny wschód
Temperatura 24°C
Wilgotność 78%
Ciśnienie 1012 hPa
Widzialność: 9000 m

METAR: VTUV 102200Z 05003KT 9000 NSC 24/20 Q1012 NOSIG

czas: 05:23 (22:23 UTC)

Prognoza

Raport powstał 5 godziny i 23 minut temu, godzina 17:00 UTC
Prognoza ważna od 10 godzina 18 UTC do 11 godzina 18 UTC
Wiatr 5 kt od wschód
Widzialność: 9000 m
Mało chmury na wysokości 3000 ft

TAF: VTUV 101700Z 1018/1118 09005KT 9000 FEW030

Obserwacja i prognoza pogody dla ponad 4000 lotnisk (raport METAR i TAF).

Dostępne stacje oznaczono żółtymi i czerwonymi punktami na mapie.

Najedź kursorem aby zobaczyć nazwę stacji.

Kliknij aby zobaczyć obserwacje i prognozy pogody.

Aby zmienić mapę: kliknij na zielony przycisk z czarnym krzyżykiem, aby powiększyć; na zielony przycisk z myślnikiem, aby pomniejszyć; na zielone strzałki, aby przejść do map sąsiednich.


METAR-TAF: